Terminal Aerodrome Forecast
Issued by NWS Quad Cities IA IL

Home | Current Version | Previous Version | Text Only | Print | Product List | Glossary On
Versions: 1 2 3 4 5 6 7 8 9 10 11 12 13 14 15 16
000
FTUS43 KDVN 021100
TAFMLI
TAF
KMLI 021120Z 0212/0312 14003KT 2SM BR SCT015 OVC200
      TEMPO 0212/0214 1 1/2SM BR OVC014
     FM021400 16004KT 3SM BR OVC012
     FM021800 17006KT 4SM BR VCTS BKN015CB OVC020 PROB30 0221/0224
      2SM TSRA BR BKN010CB OVC020
     FM030000 26005KT 6SM BR OVC015
      TEMPO 0300/0304 3SM TSRA BR BKN012CB=

USA.gov is the U.S. government's official web portal to all federal, state and local government web resources and services.